<?xml version="1.0" encoding="UTF-8" standalone="no" ?>
<gpx version="1.1" creator="Visorando" xmlns:xsi="http://www.w3.org/2001/XMLSchema-instance" xmlns="http://www.topografix.com/GPX/1/1" xsi:schemaLocation="http://www.topografix.com/GPX/1/1 http://www.topografix.com/GPX/1/1/gpx.xsd">
 <metadata>
  <name>Tour des vignes de Vézelay rive gauche de la Cure</name>
  <link href="https://www.visorando.com/randonnee-tour-des-vignes-de-vezelay-rive-gauche-d/">
   <text>https://www.visorando.com/randonnee-tour-des-vignes-de-vezelay-rive-gauche-d/</text>
  </link>
 </metadata>
 <wpt lat="47.460822" lon="3.766936">
  <ele>145</ele>
  <time>2020-05-22T17:32:24+02:00</time>
  <name>Stationnement au bord</name>
 </wpt>
 <wpt lat="47.460829" lon="3.765026">
  <ele>146</ele>
  <time>2020-05-22T17:32:34+02:00</time>
  <name>Carrefour de la boucle - Route D957</name>
 </wpt>
 <wpt lat="47.457238" lon="3.764608">
  <ele>155</ele>
  <time>2020-05-22T17:33:19+02:00</time>
  <name>Chemin de la Fontaine</name>
 </wpt>
 <wpt lat="47.454112" lon="3.761314">
  <ele>185</ele>
  <time>2020-05-22T17:34:04+02:00</time>
  <name>Fourche</name>
 </wpt>
 <wpt lat="47.450943" lon="3.751648">
  <ele>214</ele>
  <time>2020-05-22T17:35:04+02:00</time>
  <name>Croisement au pied du Mont Liboeuf</name>
 </wpt>
 <wpt lat="47.44337" lon="3.74594">
  <ele>247</ele>
  <time>2020-05-22T17:36:54+02:00</time>
  <name>Intersection</name>
 </wpt>
 <wpt lat="47.445307" lon="3.756813">
  <ele>210</ele>
  <time>2020-05-22T17:37:59+02:00</time>
  <name>Croisement</name>
 </wpt>
 <wpt lat="47.451884" lon="3.763803">
  <ele>219</ele>
  <time>2020-05-22T17:39:29+02:00</time>
  <name>À gauche en épingle à cheveux </name>
 </wpt>
 <wpt lat="47.448953" lon="3.753112">
  <ele>267</ele>
  <time>2020-05-22T17:42:34+02:00</time>
  <name>Mont Liboeuf</name>
 </wpt>
 <wpt lat="47.454463" lon="3.749587">
  <ele>169</ele>
  <time>2020-05-22T17:44:04+02:00</time>
  <name>Hammeau de Vaufron</name>
 </wpt>
 <wpt lat="47.459016" lon="3.745779">
  <ele>236</ele>
  <time>2020-05-22T17:45:29+02:00</time>
  <name>Intersection</name>
 </wpt>
 <wpt lat="47.456843" lon="3.738092">
  <ele>257</ele>
  <time>2020-05-22T17:47:04+02:00</time>
  <name>Camping de Vézelay</name>
 </wpt>
 <wpt lat="47.463056" lon="3.742072">
  <ele>251</ele>
  <time>2020-05-22T17:49:04+02:00</time>
  <name>Vézelay</name>
 </wpt>
 <wpt lat="47.464724" lon="3.748906">
  <ele>260</ele>
  <time>2020-05-22T17:49:59+02:00</time>
  <name>Fourche</name>
 </wpt>
 <wpt lat="47.461324" lon="3.765863">
  <ele>144</ele>
  <time>2020-05-22T17:53:14+02:00</time>
  <name>Prendre à droite</name>
 </wpt>
 <wpt lat="47.460816" lon="3.766958">
  <ele>145</ele>
  <time>2020-05-22T17:53:19+02:00</time>
  <name>Stationnement au bord</name>
 </wpt>
 <trk>
  <name>Tour des vignes de Vézelay rive gauche de la Cure</name>
  <trkseg>
   <trkpt lat="47.460822" lon="3.766936">
    <ele>145</ele>
    <time>2020-05-22T17:32:24+02:00</time>
   </trkpt>
   <trkpt lat="47.461315" lon="3.765863">
    <ele>144</ele>
    <time>2020-05-22T17:32:29+02:00</time>
   </trkpt>
   <trkpt lat="47.460829" lon="3.765026">
    <ele>146</ele>
    <time>2020-05-22T17:32:34+02:00</time>
   </trkpt>
   <trkpt lat="47.46047" lon="3.765386">
    <ele>145</ele>
    <time>2020-05-22T17:32:39+02:00</time>
   </trkpt>
   <trkpt lat="47.460234" lon="3.765386">
    <ele>145</ele>
    <time>2020-05-22T17:32:44+02:00</time>
   </trkpt>
   <trkpt lat="47.459656" lon="3.765059">
    <ele>146</ele>
    <time>2020-05-22T17:32:49+02:00</time>
   </trkpt>
   <trkpt lat="47.459055" lon="3.764833">
    <ele>146</ele>
    <time>2020-05-22T17:32:54+02:00</time>
   </trkpt>
   <trkpt lat="47.458272" lon="3.765091">
    <ele>150</ele>
    <time>2020-05-22T17:32:59+02:00</time>
   </trkpt>
   <trkpt lat="47.457946" lon="3.764973">
    <ele>150</ele>
    <time>2020-05-22T17:33:04+02:00</time>
   </trkpt>
   <trkpt lat="47.457677" lon="3.764694">
    <ele>150</ele>
    <time>2020-05-22T17:33:09+02:00</time>
   </trkpt>
   <trkpt lat="47.457487" lon="3.764705">
    <ele>151</ele>
    <time>2020-05-22T17:33:14+02:00</time>
   </trkpt>
   <trkpt lat="47.457238" lon="3.764608">
    <ele>155</ele>
    <time>2020-05-22T17:33:19+02:00</time>
   </trkpt>
   <trkpt lat="47.457042" lon="3.76354">
    <ele>156</ele>
    <time>2020-05-22T17:33:24+02:00</time>
   </trkpt>
   <trkpt lat="47.457006" lon="3.762832">
    <ele>155</ele>
    <time>2020-05-22T17:33:29+02:00</time>
   </trkpt>
   <trkpt lat="47.456683" lon="3.762467">
    <ele>158</ele>
    <time>2020-05-22T17:33:34+02:00</time>
   </trkpt>
   <trkpt lat="47.456362" lon="3.761861">
    <ele>162</ele>
    <time>2020-05-22T17:33:39+02:00</time>
   </trkpt>
   <trkpt lat="47.456027" lon="3.761325">
    <ele>165</ele>
    <time>2020-05-22T17:33:44+02:00</time>
   </trkpt>
   <trkpt lat="47.455835" lon="3.76118">
    <ele>167</ele>
    <time>2020-05-22T17:33:49+02:00</time>
   </trkpt>
   <trkpt lat="47.455287" lon="3.761185">
    <ele>175</ele>
    <time>2020-05-22T17:33:54+02:00</time>
   </trkpt>
   <trkpt lat="47.454536" lon="3.761368">
    <ele>182</ele>
    <time>2020-05-22T17:33:59+02:00</time>
   </trkpt>
   <trkpt lat="47.454112" lon="3.761314">
    <ele>185</ele>
    <time>2020-05-22T17:34:04+02:00</time>
   </trkpt>
   <trkpt lat="47.454005" lon="3.760821">
    <ele>188</ele>
    <time>2020-05-22T17:34:09+02:00</time>
   </trkpt>
   <trkpt lat="47.453903" lon="3.760059">
    <ele>194</ele>
    <time>2020-05-22T17:34:14+02:00</time>
   </trkpt>
   <trkpt lat="47.453809" lon="3.759362">
    <ele>198</ele>
    <time>2020-05-22T17:34:19+02:00</time>
   </trkpt>
   <trkpt lat="47.453814" lon="3.758707">
    <ele>199</ele>
    <time>2020-05-22T17:34:24+02:00</time>
   </trkpt>
   <trkpt lat="47.453446" lon="3.757838">
    <ele>199</ele>
    <time>2020-05-22T17:34:29+02:00</time>
   </trkpt>
   <trkpt lat="47.453107" lon="3.756883">
    <ele>201</ele>
    <time>2020-05-22T17:34:34+02:00</time>
   </trkpt>
   <trkpt lat="47.452737" lon="3.756132">
    <ele>204</ele>
    <time>2020-05-22T17:34:39+02:00</time>
   </trkpt>
   <trkpt lat="47.452568" lon="3.755671">
    <ele>205</ele>
    <time>2020-05-22T17:34:44+02:00</time>
   </trkpt>
   <trkpt lat="47.452423" lon="3.755016">
    <ele>206</ele>
    <time>2020-05-22T17:34:49+02:00</time>
   </trkpt>
   <trkpt lat="47.45206" lon="3.754008">
    <ele>212</ele>
    <time>2020-05-22T17:34:54+02:00</time>
   </trkpt>
   <trkpt lat="47.451625" lon="3.752742">
    <ele>212</ele>
    <time>2020-05-22T17:34:59+02:00</time>
   </trkpt>
   <trkpt lat="47.450943" lon="3.751648">
    <ele>214</ele>
    <time>2020-05-22T17:35:04+02:00</time>
   </trkpt>
   <trkpt lat="47.45058" lon="3.751004">
    <ele>218</ele>
    <time>2020-05-22T17:35:09+02:00</time>
   </trkpt>
   <trkpt lat="47.450159" lon="3.750392">
    <ele>221</ele>
    <time>2020-05-22T17:35:14+02:00</time>
   </trkpt>
   <trkpt lat="47.449715" lon="3.749748">
    <ele>222</ele>
    <time>2020-05-22T17:35:19+02:00</time>
   </trkpt>
   <trkpt lat="47.449369" lon="3.749362">
    <ele>223</ele>
    <time>2020-05-22T17:35:24+02:00</time>
   </trkpt>
   <trkpt lat="47.449073" lon="3.748971">
    <ele>223</ele>
    <time>2020-05-22T17:35:29+02:00</time>
   </trkpt>
   <trkpt lat="47.448826" lon="3.748622">
    <ele>225</ele>
    <time>2020-05-22T17:35:34+02:00</time>
   </trkpt>
   <trkpt lat="47.448319" lon="3.747796">
    <ele>226</ele>
    <time>2020-05-22T17:35:39+02:00</time>
   </trkpt>
   <trkpt lat="47.447896" lon="3.747023">
    <ele>230</ele>
    <time>2020-05-22T17:35:44+02:00</time>
   </trkpt>
   <trkpt lat="47.447335" lon="3.74616">
    <ele>239</ele>
    <time>2020-05-22T17:35:49+02:00</time>
   </trkpt>
   <trkpt lat="47.446742" lon="3.74521">
    <ele>241</ele>
    <time>2020-05-22T17:35:54+02:00</time>
   </trkpt>
   <trkpt lat="47.44635" lon="3.744631">
    <ele>243</ele>
    <time>2020-05-22T17:35:59+02:00</time>
   </trkpt>
   <trkpt lat="47.445924" lon="3.74425">
    <ele>244</ele>
    <time>2020-05-22T17:36:04+02:00</time>
   </trkpt>
   <trkpt lat="47.445645" lon="3.7441">
    <ele>245</ele>
    <time>2020-05-22T17:36:09+02:00</time>
   </trkpt>
   <trkpt lat="47.445104" lon="3.744159">
    <ele>250</ele>
    <time>2020-05-22T17:36:14+02:00</time>
   </trkpt>
   <trkpt lat="47.444803" lon="3.744202">
    <ele>250</ele>
    <time>2020-05-22T17:36:19+02:00</time>
   </trkpt>
   <trkpt lat="47.444393" lon="3.744405">
    <ele>250</ele>
    <time>2020-05-22T17:36:24+02:00</time>
   </trkpt>
   <trkpt lat="47.444157" lon="3.744577">
    <ele>249</ele>
    <time>2020-05-22T17:36:29+02:00</time>
   </trkpt>
   <trkpt lat="47.444005" lon="3.744888">
    <ele>250</ele>
    <time>2020-05-22T17:36:34+02:00</time>
   </trkpt>
   <trkpt lat="47.443798" lon="3.745398">
    <ele>250</ele>
    <time>2020-05-22T17:36:39+02:00</time>
   </trkpt>
   <trkpt lat="47.443628" lon="3.74565">
    <ele>249</ele>
    <time>2020-05-22T17:36:44+02:00</time>
   </trkpt>
   <trkpt lat="47.443406" lon="3.745854">
    <ele>247</ele>
    <time>2020-05-22T17:36:49+02:00</time>
   </trkpt>
   <trkpt lat="47.44337" lon="3.74594">
    <ele>247</ele>
    <time>2020-05-22T17:36:54+02:00</time>
   </trkpt>
   <trkpt lat="47.443548" lon="3.746106">
    <ele>250</ele>
    <time>2020-05-22T17:36:59+02:00</time>
   </trkpt>
   <trkpt lat="47.443624" lon="3.746358">
    <ele>251</ele>
    <time>2020-05-22T17:37:04+02:00</time>
   </trkpt>
   <trkpt lat="47.443653" lon="3.746771">
    <ele>253</ele>
    <time>2020-05-22T17:37:09+02:00</time>
   </trkpt>
   <trkpt lat="47.44434" lon="3.74903">
    <ele>247</ele>
    <time>2020-05-22T17:37:14+02:00</time>
   </trkpt>
   <trkpt lat="47.444921" lon="3.750607">
    <ele>237</ele>
    <time>2020-05-22T17:37:19+02:00</time>
   </trkpt>
   <trkpt lat="47.445612" lon="3.752618">
    <ele>233</ele>
    <time>2020-05-22T17:37:24+02:00</time>
   </trkpt>
   <trkpt lat="47.445806" lon="3.75316">
    <ele>233</ele>
    <time>2020-05-22T17:37:29+02:00</time>
   </trkpt>
   <trkpt lat="47.446011" lon="3.753847">
    <ele>230</ele>
    <time>2020-05-22T17:37:34+02:00</time>
   </trkpt>
   <trkpt lat="47.446626" lon="3.75522">
    <ele>227</ele>
    <time>2020-05-22T17:37:39+02:00</time>
   </trkpt>
   <trkpt lat="47.446619" lon="3.75536">
    <ele>226</ele>
    <time>2020-05-22T17:37:44+02:00</time>
   </trkpt>
   <trkpt lat="47.446009" lon="3.755961">
    <ele>217</ele>
    <time>2020-05-22T17:37:49+02:00</time>
   </trkpt>
   <trkpt lat="47.445322" lon="3.756652">
    <ele>211</ele>
    <time>2020-05-22T17:37:54+02:00</time>
   </trkpt>
   <trkpt lat="47.445307" lon="3.756813">
    <ele>210</ele>
    <time>2020-05-22T17:37:59+02:00</time>
   </trkpt>
   <trkpt lat="47.445668" lon="3.757602">
    <ele>210</ele>
    <time>2020-05-22T17:38:04+02:00</time>
   </trkpt>
   <trkpt lat="47.445821" lon="3.75845">
    <ele>209</ele>
    <time>2020-05-22T17:38:09+02:00</time>
   </trkpt>
   <trkpt lat="47.446029" lon="3.759265">
    <ele>214</ele>
    <time>2020-05-22T17:38:14+02:00</time>
   </trkpt>
   <trkpt lat="47.4463" lon="3.760166">
    <ele>216</ele>
    <time>2020-05-22T17:38:19+02:00</time>
   </trkpt>
   <trkpt lat="47.446633" lon="3.761035">
    <ele>218</ele>
    <time>2020-05-22T17:38:24+02:00</time>
   </trkpt>
   <trkpt lat="47.447038" lon="3.761572">
    <ele>220</ele>
    <time>2020-05-22T17:38:29+02:00</time>
   </trkpt>
   <trkpt lat="47.447482" lon="3.762001">
    <ele>223</ele>
    <time>2020-05-22T17:38:34+02:00</time>
   </trkpt>
   <trkpt lat="47.447816" lon="3.762205">
    <ele>224</ele>
    <time>2020-05-22T17:38:39+02:00</time>
   </trkpt>
   <trkpt lat="47.448491" lon="3.762473">
    <ele>224</ele>
    <time>2020-05-22T17:38:44+02:00</time>
   </trkpt>
   <trkpt lat="47.448986" lon="3.762795">
    <ele>223</ele>
    <time>2020-05-22T17:38:49+02:00</time>
   </trkpt>
   <trkpt lat="47.449332" lon="3.762934">
    <ele>223</ele>
    <time>2020-05-22T17:38:54+02:00</time>
   </trkpt>
   <trkpt lat="47.449782" lon="3.763203">
    <ele>224</ele>
    <time>2020-05-22T17:38:59+02:00</time>
   </trkpt>
   <trkpt lat="47.450303" lon="3.763406">
    <ele>225</ele>
    <time>2020-05-22T17:39:04+02:00</time>
   </trkpt>
   <trkpt lat="47.450785" lon="3.763648">
    <ele>224</ele>
    <time>2020-05-22T17:39:09+02:00</time>
   </trkpt>
   <trkpt lat="47.451017" lon="3.763927">
    <ele>222</ele>
    <time>2020-05-22T17:39:14+02:00</time>
   </trkpt>
   <trkpt lat="47.451275" lon="3.764093">
    <ele>221</ele>
    <time>2020-05-22T17:39:19+02:00</time>
   </trkpt>
   <trkpt lat="47.4515" lon="3.764023">
    <ele>221</ele>
    <time>2020-05-22T17:39:24+02:00</time>
   </trkpt>
   <trkpt lat="47.451884" lon="3.763803">
    <ele>219</ele>
    <time>2020-05-22T17:39:29+02:00</time>
   </trkpt>
   <trkpt lat="47.451681" lon="3.763685">
    <ele>221</ele>
    <time>2020-05-22T17:39:34+02:00</time>
   </trkpt>
   <trkpt lat="47.45162" lon="3.763562">
    <ele>222</ele>
    <time>2020-05-22T17:39:39+02:00</time>
   </trkpt>
   <trkpt lat="47.451583" lon="3.763235">
    <ele>223</ele>
    <time>2020-05-22T17:39:44+02:00</time>
   </trkpt>
   <trkpt lat="47.451547" lon="3.762848">
    <ele>223</ele>
    <time>2020-05-22T17:39:49+02:00</time>
   </trkpt>
   <trkpt lat="47.451485" lon="3.762435">
    <ele>225</ele>
    <time>2020-05-22T17:39:54+02:00</time>
   </trkpt>
   <trkpt lat="47.451442" lon="3.762339">
    <ele>225</ele>
    <time>2020-05-22T17:39:59+02:00</time>
   </trkpt>
   <trkpt lat="47.451369" lon="3.762306">
    <ele>226</ele>
    <time>2020-05-22T17:40:04+02:00</time>
   </trkpt>
   <trkpt lat="47.451177" lon="3.762296">
    <ele>228</ele>
    <time>2020-05-22T17:40:09+02:00</time>
   </trkpt>
   <trkpt lat="47.451101" lon="3.762242">
    <ele>229</ele>
    <time>2020-05-22T17:40:14+02:00</time>
   </trkpt>
   <trkpt lat="47.451065" lon="3.762151">
    <ele>229</ele>
    <time>2020-05-22T17:40:19+02:00</time>
   </trkpt>
   <trkpt lat="47.45105" lon="3.762017">
    <ele>230</ele>
    <time>2020-05-22T17:40:24+02:00</time>
   </trkpt>
   <trkpt lat="47.450999" lon="3.761765">
    <ele>232</ele>
    <time>2020-05-22T17:40:29+02:00</time>
   </trkpt>
   <trkpt lat="47.450807" lon="3.761099">
    <ele>239</ele>
    <time>2020-05-22T17:40:34+02:00</time>
   </trkpt>
   <trkpt lat="47.450709" lon="3.760622">
    <ele>244</ele>
    <time>2020-05-22T17:40:39+02:00</time>
   </trkpt>
   <trkpt lat="47.450637" lon="3.760225">
    <ele>248</ele>
    <time>2020-05-22T17:40:44+02:00</time>
   </trkpt>
   <trkpt lat="47.450579" lon="3.759909">
    <ele>252</ele>
    <time>2020-05-22T17:40:49+02:00</time>
   </trkpt>
   <trkpt lat="47.450499" lon="3.75956">
    <ele>257</ele>
    <time>2020-05-22T17:40:54+02:00</time>
   </trkpt>
   <trkpt lat="47.450462" lon="3.75941">
    <ele>259</ele>
    <time>2020-05-22T17:40:59+02:00</time>
   </trkpt>
   <trkpt lat="47.450386" lon="3.759238">
    <ele>262</ele>
    <time>2020-05-22T17:41:04+02:00</time>
   </trkpt>
   <trkpt lat="47.450187" lon="3.759147">
    <ele>267</ele>
    <time>2020-05-22T17:41:09+02:00</time>
   </trkpt>
   <trkpt lat="47.449893" lon="3.759045">
    <ele>271</ele>
    <time>2020-05-22T17:41:14+02:00</time>
   </trkpt>
   <trkpt lat="47.449857" lon="3.758938">
    <ele>271</ele>
    <time>2020-05-22T17:41:19+02:00</time>
   </trkpt>
   <trkpt lat="47.449875" lon="3.758557">
    <ele>275</ele>
    <time>2020-05-22T17:41:24+02:00</time>
   </trkpt>
   <trkpt lat="47.449936" lon="3.757988">
    <ele>278</ele>
    <time>2020-05-22T17:41:29+02:00</time>
   </trkpt>
   <trkpt lat="47.449955" lon="3.757757">
    <ele>279</ele>
    <time>2020-05-22T17:41:34+02:00</time>
   </trkpt>
   <trkpt lat="47.449936" lon="3.757473">
    <ele>279</ele>
    <time>2020-05-22T17:41:39+02:00</time>
   </trkpt>
   <trkpt lat="47.449828" lon="3.756706">
    <ele>277</ele>
    <time>2020-05-22T17:41:44+02:00</time>
   </trkpt>
   <trkpt lat="47.449773" lon="3.756223">
    <ele>276</ele>
    <time>2020-05-22T17:41:49+02:00</time>
   </trkpt>
   <trkpt lat="47.449766" lon="3.756094">
    <ele>276</ele>
    <time>2020-05-22T17:41:54+02:00</time>
   </trkpt>
   <trkpt lat="47.44973" lon="3.755751">
    <ele>275</ele>
    <time>2020-05-22T17:41:59+02:00</time>
   </trkpt>
   <trkpt lat="47.449672" lon="3.755306">
    <ele>270</ele>
    <time>2020-05-22T17:42:04+02:00</time>
   </trkpt>
   <trkpt lat="47.449581" lon="3.754893">
    <ele>266</ele>
    <time>2020-05-22T17:42:09+02:00</time>
   </trkpt>
   <trkpt lat="47.44949" lon="3.754517">
    <ele>263</ele>
    <time>2020-05-22T17:42:14+02:00</time>
   </trkpt>
   <trkpt lat="47.449439" lon="3.754308">
    <ele>262</ele>
    <time>2020-05-22T17:42:19+02:00</time>
   </trkpt>
   <trkpt lat="47.449244" lon="3.753788">
    <ele>264</ele>
    <time>2020-05-22T17:42:24+02:00</time>
   </trkpt>
   <trkpt lat="47.44908" lon="3.753385">
    <ele>266</ele>
    <time>2020-05-22T17:42:29+02:00</time>
   </trkpt>
   <trkpt lat="47.448953" lon="3.753112">
    <ele>267</ele>
    <time>2020-05-22T17:42:34+02:00</time>
   </trkpt>
   <trkpt lat="47.449211" lon="3.752806">
    <ele>263</ele>
    <time>2020-05-22T17:42:39+02:00</time>
   </trkpt>
   <trkpt lat="47.449371" lon="3.75235">
    <ele>256</ele>
    <time>2020-05-22T17:42:44+02:00</time>
   </trkpt>
   <trkpt lat="47.449479" lon="3.751814">
    <ele>248</ele>
    <time>2020-05-22T17:42:49+02:00</time>
   </trkpt>
   <trkpt lat="47.449563" lon="3.751642">
    <ele>244</ele>
    <time>2020-05-22T17:42:54+02:00</time>
   </trkpt>
   <trkpt lat="47.449722" lon="3.751519">
    <ele>239</ele>
    <time>2020-05-22T17:42:59+02:00</time>
   </trkpt>
   <trkpt lat="47.450209" lon="3.751524">
    <ele>229</ele>
    <time>2020-05-22T17:43:04+02:00</time>
   </trkpt>
   <trkpt lat="47.450444" lon="3.751454">
    <ele>223</ele>
    <time>2020-05-22T17:43:09+02:00</time>
   </trkpt>
   <trkpt lat="47.450698" lon="3.751508">
    <ele>218</ele>
    <time>2020-05-22T17:43:14+02:00</time>
   </trkpt>
   <trkpt lat="47.450943" lon="3.751637">
    <ele>214</ele>
    <time>2020-05-22T17:43:19+02:00</time>
   </trkpt>
   <trkpt lat="47.451255" lon="3.751551">
    <ele>210</ele>
    <time>2020-05-22T17:43:24+02:00</time>
   </trkpt>
   <trkpt lat="47.452066" lon="3.751165">
    <ele>200</ele>
    <time>2020-05-22T17:43:29+02:00</time>
   </trkpt>
   <trkpt lat="47.452677" lon="3.750768">
    <ele>188</ele>
    <time>2020-05-22T17:43:34+02:00</time>
   </trkpt>
   <trkpt lat="47.453219" lon="3.750296">
    <ele>173</ele>
    <time>2020-05-22T17:43:39+02:00</time>
   </trkpt>
   <trkpt lat="47.453285" lon="3.750403">
    <ele>172</ele>
    <time>2020-05-22T17:43:44+02:00</time>
   </trkpt>
   <trkpt lat="47.453364" lon="3.750419">
    <ele>171</ele>
    <time>2020-05-22T17:43:49+02:00</time>
   </trkpt>
   <trkpt lat="47.453785" lon="3.750172">
    <ele>167</ele>
    <time>2020-05-22T17:43:54+02:00</time>
   </trkpt>
   <trkpt lat="47.45409" lon="3.749893">
    <ele>165</ele>
    <time>2020-05-22T17:43:59+02:00</time>
   </trkpt>
   <trkpt lat="47.454463" lon="3.749587">
    <ele>169</ele>
    <time>2020-05-22T17:44:04+02:00</time>
   </trkpt>
   <trkpt lat="47.454601" lon="3.749555">
    <ele>171</ele>
    <time>2020-05-22T17:44:09+02:00</time>
   </trkpt>
   <trkpt lat="47.45471" lon="3.749646">
    <ele>172</ele>
    <time>2020-05-22T17:44:14+02:00</time>
   </trkpt>
   <trkpt lat="47.455116" lon="3.749325">
    <ele>180</ele>
    <time>2020-05-22T17:44:19+02:00</time>
   </trkpt>
   <trkpt lat="47.455515" lon="3.74918">
    <ele>186</ele>
    <time>2020-05-22T17:44:24+02:00</time>
   </trkpt>
   <trkpt lat="47.455795" lon="3.748928">
    <ele>192</ele>
    <time>2020-05-22T17:44:29+02:00</time>
   </trkpt>
   <trkpt lat="47.456139" lon="3.748557">
    <ele>198</ele>
    <time>2020-05-22T17:44:34+02:00</time>
   </trkpt>
   <trkpt lat="47.456382" lon="3.748182">
    <ele>203</ele>
    <time>2020-05-22T17:44:39+02:00</time>
   </trkpt>
   <trkpt lat="47.456654" lon="3.747892">
    <ele>206</ele>
    <time>2020-05-22T17:44:44+02:00</time>
   </trkpt>
   <trkpt lat="47.456886" lon="3.747683">
    <ele>208</ele>
    <time>2020-05-22T17:44:49+02:00</time>
   </trkpt>
   <trkpt lat="47.457108" lon="3.747447">
    <ele>210</ele>
    <time>2020-05-22T17:44:54+02:00</time>
   </trkpt>
   <trkpt lat="47.457108" lon="3.747098">
    <ele>211</ele>
    <time>2020-05-22T17:44:59+02:00</time>
   </trkpt>
   <trkpt lat="47.457213" lon="3.747023">
    <ele>212</ele>
    <time>2020-05-22T17:45:04+02:00</time>
   </trkpt>
   <trkpt lat="47.457271" lon="3.746991">
    <ele>213</ele>
    <time>2020-05-22T17:45:09+02:00</time>
   </trkpt>
   <trkpt lat="47.457547" lon="3.746921">
    <ele>215</ele>
    <time>2020-05-22T17:45:14+02:00</time>
   </trkpt>
   <trkpt lat="47.457819" lon="3.746755">
    <ele>220</ele>
    <time>2020-05-22T17:45:19+02:00</time>
   </trkpt>
   <trkpt lat="47.458464" lon="3.746133">
    <ele>230</ele>
    <time>2020-05-22T17:45:24+02:00</time>
   </trkpt>
   <trkpt lat="47.459016" lon="3.745779">
    <ele>236</ele>
    <time>2020-05-22T17:45:29+02:00</time>
   </trkpt>
   <trkpt lat="47.458765" lon="3.745612">
    <ele>234</ele>
    <time>2020-05-22T17:45:34+02:00</time>
   </trkpt>
   <trkpt lat="47.458609" lon="3.745419">
    <ele>233</ele>
    <time>2020-05-22T17:45:39+02:00</time>
   </trkpt>
   <trkpt lat="47.45841" lon="3.745087">
    <ele>233</ele>
    <time>2020-05-22T17:45:44+02:00</time>
   </trkpt>
   <trkpt lat="47.458243" lon="3.744695">
    <ele>233</ele>
    <time>2020-05-22T17:45:49+02:00</time>
   </trkpt>
   <trkpt lat="47.45808" lon="3.744239">
    <ele>234</ele>
    <time>2020-05-22T17:45:54+02:00</time>
   </trkpt>
   <trkpt lat="47.457924" lon="3.743896">
    <ele>235</ele>
    <time>2020-05-22T17:45:59+02:00</time>
   </trkpt>
   <trkpt lat="47.457782" lon="3.743681">
    <ele>235</ele>
    <time>2020-05-22T17:46:04+02:00</time>
   </trkpt>
   <trkpt lat="47.457499" lon="3.743193">
    <ele>236</ele>
    <time>2020-05-22T17:46:09+02:00</time>
   </trkpt>
   <trkpt lat="47.457249" lon="3.742844">
    <ele>239</ele>
    <time>2020-05-22T17:46:14+02:00</time>
   </trkpt>
   <trkpt lat="47.456495" lon="3.742013">
    <ele>247</ele>
    <time>2020-05-22T17:46:19+02:00</time>
   </trkpt>
   <trkpt lat="47.456092" lon="3.74182">
    <ele>247</ele>
    <time>2020-05-22T17:46:24+02:00</time>
   </trkpt>
   <trkpt lat="47.455682" lon="3.74175">
    <ele>244</ele>
    <time>2020-05-22T17:46:29+02:00</time>
   </trkpt>
   <trkpt lat="47.455486" lon="3.741004">
    <ele>249</ele>
    <time>2020-05-22T17:46:34+02:00</time>
   </trkpt>
   <trkpt lat="47.45545" lon="3.740114">
    <ele>253</ele>
    <time>2020-05-22T17:46:39+02:00</time>
   </trkpt>
   <trkpt lat="47.455577" lon="3.739363">
    <ele>254</ele>
    <time>2020-05-22T17:46:44+02:00</time>
   </trkpt>
   <trkpt lat="47.455816" lon="3.738864">
    <ele>255</ele>
    <time>2020-05-22T17:46:49+02:00</time>
   </trkpt>
   <trkpt lat="47.455951" lon="3.738746">
    <ele>256</ele>
    <time>2020-05-22T17:46:54+02:00</time>
   </trkpt>
   <trkpt lat="47.456406" lon="3.73843">
    <ele>257</ele>
    <time>2020-05-22T17:46:59+02:00</time>
   </trkpt>
   <trkpt lat="47.456843" lon="3.738092">
    <ele>257</ele>
    <time>2020-05-22T17:47:04+02:00</time>
   </trkpt>
   <trkpt lat="47.457079" lon="3.738472">
    <ele>261</ele>
    <time>2020-05-22T17:47:09+02:00</time>
   </trkpt>
   <trkpt lat="47.457354" lon="3.738784">
    <ele>265</ele>
    <time>2020-05-22T17:47:14+02:00</time>
   </trkpt>
   <trkpt lat="47.457474" lon="3.738848">
    <ele>266</ele>
    <time>2020-05-22T17:47:19+02:00</time>
   </trkpt>
   <trkpt lat="47.457547" lon="3.738977">
    <ele>267</ele>
    <time>2020-05-22T17:47:24+02:00</time>
   </trkpt>
   <trkpt lat="47.457659" lon="3.739315">
    <ele>269</ele>
    <time>2020-05-22T17:47:29+02:00</time>
   </trkpt>
   <trkpt lat="47.45767" lon="3.739513">
    <ele>270</ele>
    <time>2020-05-22T17:47:34+02:00</time>
   </trkpt>
   <trkpt lat="47.457848" lon="3.740146">
    <ele>271</ele>
    <time>2020-05-22T17:47:39+02:00</time>
   </trkpt>
   <trkpt lat="47.457993" lon="3.740243">
    <ele>270</ele>
    <time>2020-05-22T17:47:44+02:00</time>
   </trkpt>
   <trkpt lat="47.458163" lon="3.740323">
    <ele>269</ele>
    <time>2020-05-22T17:47:49+02:00</time>
   </trkpt>
   <trkpt lat="47.458196" lon="3.740414">
    <ele>269</ele>
    <time>2020-05-22T17:47:54+02:00</time>
   </trkpt>
   <trkpt lat="47.458457" lon="3.740597">
    <ele>267</ele>
    <time>2020-05-22T17:47:59+02:00</time>
   </trkpt>
   <trkpt lat="47.458649" lon="3.740672">
    <ele>266</ele>
    <time>2020-05-22T17:48:04+02:00</time>
   </trkpt>
   <trkpt lat="47.458903" lon="3.740956">
    <ele>265</ele>
    <time>2020-05-22T17:48:09+02:00</time>
   </trkpt>
   <trkpt lat="47.458994" lon="3.740994">
    <ele>265</ele>
    <time>2020-05-22T17:48:14+02:00</time>
   </trkpt>
   <trkpt lat="47.459157" lon="3.740988">
    <ele>264</ele>
    <time>2020-05-22T17:48:19+02:00</time>
   </trkpt>
   <trkpt lat="47.459411" lon="3.741063">
    <ele>262</ele>
    <time>2020-05-22T17:48:24+02:00</time>
   </trkpt>
   <trkpt lat="47.459748" lon="3.741208">
    <ele>260</ele>
    <time>2020-05-22T17:48:29+02:00</time>
   </trkpt>
   <trkpt lat="47.460484" lon="3.741197">
    <ele>255</ele>
    <time>2020-05-22T17:48:34+02:00</time>
   </trkpt>
   <trkpt lat="47.460684" lon="3.741267">
    <ele>254</ele>
    <time>2020-05-22T17:48:39+02:00</time>
   </trkpt>
   <trkpt lat="47.461005" lon="3.741541">
    <ele>253</ele>
    <time>2020-05-22T17:48:44+02:00</time>
   </trkpt>
   <trkpt lat="47.46129" lon="3.74124">
    <ele>250</ele>
    <time>2020-05-22T17:48:49+02:00</time>
   </trkpt>
   <trkpt lat="47.461888" lon="3.74197">
    <ele>247</ele>
    <time>2020-05-22T17:48:54+02:00</time>
   </trkpt>
   <trkpt lat="47.462443" lon="3.742163">
    <ele>246</ele>
    <time>2020-05-22T17:48:59+02:00</time>
   </trkpt>
   <trkpt lat="47.463056" lon="3.742072">
    <ele>251</ele>
    <time>2020-05-22T17:49:04+02:00</time>
   </trkpt>
   <trkpt lat="47.463005" lon="3.742421">
    <ele>251</ele>
    <time>2020-05-22T17:49:09+02:00</time>
   </trkpt>
   <trkpt lat="47.463117" lon="3.742984">
    <ele>252</ele>
    <time>2020-05-22T17:49:14+02:00</time>
   </trkpt>
   <trkpt lat="47.463273" lon="3.743397">
    <ele>254</ele>
    <time>2020-05-22T17:49:19+02:00</time>
   </trkpt>
   <trkpt lat="47.463747" lon="3.74403">
    <ele>256</ele>
    <time>2020-05-22T17:49:24+02:00</time>
   </trkpt>
   <trkpt lat="47.464242" lon="3.744711">
    <ele>259</ele>
    <time>2020-05-22T17:49:29+02:00</time>
   </trkpt>
   <trkpt lat="47.464648" lon="3.745382">
    <ele>266</ele>
    <time>2020-05-22T17:49:34+02:00</time>
   </trkpt>
   <trkpt lat="47.464808" lon="3.745902">
    <ele>269</ele>
    <time>2020-05-22T17:49:39+02:00</time>
   </trkpt>
   <trkpt lat="47.464913" lon="3.746852">
    <ele>270</ele>
    <time>2020-05-22T17:49:44+02:00</time>
   </trkpt>
   <trkpt lat="47.464916" lon="3.747431">
    <ele>269</ele>
    <time>2020-05-22T17:49:49+02:00</time>
   </trkpt>
   <trkpt lat="47.464742" lon="3.748498">
    <ele>262</ele>
    <time>2020-05-22T17:49:54+02:00</time>
   </trkpt>
   <trkpt lat="47.464724" lon="3.748906">
    <ele>260</ele>
    <time>2020-05-22T17:49:59+02:00</time>
   </trkpt>
   <trkpt lat="47.464717" lon="3.749196">
    <ele>259</ele>
    <time>2020-05-22T17:50:04+02:00</time>
   </trkpt>
   <trkpt lat="47.464648" lon="3.749695">
    <ele>254</ele>
    <time>2020-05-22T17:50:09+02:00</time>
   </trkpt>
   <trkpt lat="47.464492" lon="3.750451">
    <ele>243</ele>
    <time>2020-05-22T17:50:14+02:00</time>
   </trkpt>
   <trkpt lat="47.464477" lon="3.750725">
    <ele>240</ele>
    <time>2020-05-22T17:50:19+02:00</time>
   </trkpt>
   <trkpt lat="47.464477" lon="3.751208">
    <ele>235</ele>
    <time>2020-05-22T17:50:24+02:00</time>
   </trkpt>
   <trkpt lat="47.464648" lon="3.75213">
    <ele>226</ele>
    <time>2020-05-22T17:50:29+02:00</time>
   </trkpt>
   <trkpt lat="47.46476" lon="3.752747">
    <ele>217</ele>
    <time>2020-05-22T17:50:34+02:00</time>
   </trkpt>
   <trkpt lat="47.464789" lon="3.752972">
    <ele>214</ele>
    <time>2020-05-22T17:50:39+02:00</time>
   </trkpt>
   <trkpt lat="47.464753" lon="3.753139">
    <ele>210</ele>
    <time>2020-05-22T17:50:44+02:00</time>
   </trkpt>
   <trkpt lat="47.464956" lon="3.753444">
    <ele>207</ele>
    <time>2020-05-22T17:50:49+02:00</time>
   </trkpt>
   <trkpt lat="47.464871" lon="3.75345">
    <ele>206</ele>
    <time>2020-05-22T17:50:54+02:00</time>
   </trkpt>
   <trkpt lat="47.464782" lon="3.753439">
    <ele>205</ele>
    <time>2020-05-22T17:50:59+02:00</time>
   </trkpt>
   <trkpt lat="47.46472" lon="3.753498">
    <ele>203</ele>
    <time>2020-05-22T17:51:04+02:00</time>
   </trkpt>
   <trkpt lat="47.464615" lon="3.753906">
    <ele>196</ele>
    <time>2020-05-22T17:51:09+02:00</time>
   </trkpt>
   <trkpt lat="47.464528" lon="3.754024">
    <ele>194</ele>
    <time>2020-05-22T17:51:14+02:00</time>
   </trkpt>
   <trkpt lat="47.464488" lon="3.754169">
    <ele>192</ele>
    <time>2020-05-22T17:51:19+02:00</time>
   </trkpt>
   <trkpt lat="47.464314" lon="3.754394">
    <ele>187</ele>
    <time>2020-05-22T17:51:24+02:00</time>
   </trkpt>
   <trkpt lat="47.4641" lon="3.754651">
    <ele>181</ele>
    <time>2020-05-22T17:51:29+02:00</time>
   </trkpt>
   <trkpt lat="47.463966" lon="3.754882">
    <ele>178</ele>
    <time>2020-05-22T17:51:34+02:00</time>
   </trkpt>
   <trkpt lat="47.463995" lon="3.755038">
    <ele>176</ele>
    <time>2020-05-22T17:51:39+02:00</time>
   </trkpt>
   <trkpt lat="47.464392" lon="3.755413">
    <ele>172</ele>
    <time>2020-05-22T17:51:44+02:00</time>
   </trkpt>
   <trkpt lat="47.464869" lon="3.755805">
    <ele>166</ele>
    <time>2020-05-22T17:51:49+02:00</time>
   </trkpt>
   <trkpt lat="47.464862" lon="3.755901">
    <ele>165</ele>
    <time>2020-05-22T17:51:54+02:00</time>
   </trkpt>
   <trkpt lat="47.464648" lon="3.756379">
    <ele>161</ele>
    <time>2020-05-22T17:51:59+02:00</time>
   </trkpt>
   <trkpt lat="47.464595" lon="3.756637">
    <ele>160</ele>
    <time>2020-05-22T17:52:04+02:00</time>
   </trkpt>
   <trkpt lat="47.464334" lon="3.757076">
    <ele>160</ele>
    <time>2020-05-22T17:52:09+02:00</time>
   </trkpt>
   <trkpt lat="47.46389" lon="3.757795">
    <ele>162</ele>
    <time>2020-05-22T17:52:14+02:00</time>
   </trkpt>
   <trkpt lat="47.463253" lon="3.758621">
    <ele>159</ele>
    <time>2020-05-22T17:52:19+02:00</time>
   </trkpt>
   <trkpt lat="47.462671" lon="3.759463">
    <ele>158</ele>
    <time>2020-05-22T17:52:24+02:00</time>
   </trkpt>
   <trkpt lat="47.462573" lon="3.759517">
    <ele>159</ele>
    <time>2020-05-22T17:52:29+02:00</time>
   </trkpt>
   <trkpt lat="47.46232" lon="3.760053">
    <ele>156</ele>
    <time>2020-05-22T17:52:34+02:00</time>
   </trkpt>
   <trkpt lat="47.462294" lon="3.760348">
    <ele>153</ele>
    <time>2020-05-22T17:52:39+02:00</time>
   </trkpt>
   <trkpt lat="47.462064" lon="3.761314">
    <ele>146</ele>
    <time>2020-05-22T17:52:44+02:00</time>
   </trkpt>
   <trkpt lat="47.461942" lon="3.762119">
    <ele>144</ele>
    <time>2020-05-22T17:52:49+02:00</time>
   </trkpt>
   <trkpt lat="47.462029" lon="3.763395">
    <ele>144</ele>
    <time>2020-05-22T17:52:54+02:00</time>
   </trkpt>
   <trkpt lat="47.461549" lon="3.764039">
    <ele>145</ele>
    <time>2020-05-22T17:52:59+02:00</time>
   </trkpt>
   <trkpt lat="47.46109" lon="3.764597">
    <ele>145</ele>
    <time>2020-05-22T17:53:04+02:00</time>
   </trkpt>
   <trkpt lat="47.460838" lon="3.765016">
    <ele>146</ele>
    <time>2020-05-22T17:53:09+02:00</time>
   </trkpt>
   <trkpt lat="47.461324" lon="3.765863">
    <ele>144</ele>
    <time>2020-05-22T17:53:14+02:00</time>
   </trkpt>
   <trkpt lat="47.460816" lon="3.766958">
    <ele>145</ele>
    <time>2020-05-22T17:53:19+02:00</time>
   </trkpt>
  </trkseg>
 </trk></gpx>